Elgin, North Dakota
Current Conditions -  °F | °C
As of 4:55 AM on Sunday 21 Dec 2014 (Local Time) from KD57 Reporting Station
Broken Clouds Broken Clouds  
Wind Chill: 27°   Ceiling: 8000
Heat Index: 27°   Visibility: 10mi
Dew Point: 23°   Wind: 0mph
Humidity: 86%   Direction: NA
Pressure: 29.59"   Gusts: NA
Location:  46.4°N, 101.85°W
Report Text: KD57 211155Z AUTO 00000KT 10SM BKN080 BKN110 M03/M05 A2959 RMK AO2 TSNO
Loading
Personal Weather Stations






























Interactive Weather Map New forecast layout! Learn more

10-Day Weather Forecast

Advertisements
Track Severe Weather on mobile